Time;durP1;ratioP1;P1;durP2;ratioP2;P2;SDS_P1;SDS_P2;PMS_P1;PMS_P2;Temp;Humidity;BMP_temperature;BMP_pressure;BME280_temperature;BME280_humidity;BME280_pressure;Samples;Min_cycle;Max_cycle;Signal;HPM_P1;HPM_P2
2022/07/19 00:00:03;;;;;;;6.10;4.13;;;18.30;1.00;;;;;;5049060;28;20228;-63
2022/07/19 00:02:30;;;;;;;6.90;4.05;;;18.40;1.00;;;;;;5062579;28;20266;-63
2022/07/19 00:04:57;;;;;;;6.82;4.55;;;18.70;1.00;;;;;;5027755;28;20188;-63
2022/07/19 00:07:23;;;;;;;6.38;4.50;;;18.30;1.00;;;;;;5053316;28;20407;-62
2022/07/19 00:09:50;;;;;;;6.35;4.72;;;18.20;1.00;;;;;;5047146;28;20204;-62
2022/07/19 00:12:18;;;;;;;8.13;4.15;;;18.20;1.00;;;;;;5061842;28;20228;-63
2022/07/19 00:14:45;;;;;;;5.13;4.45;;;18.10;1.00;;;;;;5023659;28;20231;-63
2022/07/19 00:17:12;;;;;;;6.50;4.40;;;18.00;1.00;;;;;;5061060;28;20211;-63
2022/07/19 00:19:39;;;;;;;7.88;4.53;;;17.70;1.00;;;;;;5056058;28;20236;-63
2022/07/19 00:22:06;;;;;;;8.18;4.95;;;18.00;1.00;;;;;;5047054;28;20196;-62
2022/07/19 00:24:33;;;;;;;6.47;4.03;;;18.00;1.00;;;;;;5068358;28;20223;-62
2022/07/19 00:27:00;;;;;;;7.75;4.10;;;17.90;1.00;;;;;;5047155;28;20223;-62
2022/07/19 00:29:28;;;;;;;6.50;4.07;;;17.50;1.00;;;;;;5040150;28;20196;-62
2022/07/19 00:31:55;;;;;;;7.70;4.05;;;;;;;;;;5048866;28;20711;-62
2022/07/19 00:34:22;;;;;;;7.80;4.30;;;17.70;1.00;;;;;;5060054;28;20211;-63
2022/07/19 00:36:48;;;;;;;6.47;4.38;;;17.70;1.00;;;;;;5055089;28;20215;-61
2022/07/19 00:39:15;;;;;;;5.60;4.07;;;18.40;1.00;;;;;;5044247;28;21618;-62
2022/07/19 00:41:43;;;;;;;6.32;4.03;;;17.70;1.00;;;;;;5061445;28;20196;-62
2022/07/19 00:44:11;;;;;;;6.97;4.53;;;17.80;1.00;;;;;;5030730;28;20797;-62
2022/07/19 00:46:39;;;;;;;5.88;4.20;;;17.90;1.00;;;;;;5049188;28;20223;-62
2022/07/19 00:49:06;;;;;;;6.15;4.30;;;17.80;1.00;;;;;;5060752;28;20201;-62
2022/07/19 00:51:36;;;;;;;6.68;3.90;;;17.80;1.00;;;;;;5033006;28;20208;-62
2022/07/19 00:54:04;;;;;;;7.30;4.53;;;17.90;1.00;;;;;;5062330;28;20196;-62
2022/07/19 00:56:34;;;;;;;8.00;4.82;;;17.90;1.00;;;;;;5047124;28;20207;-62
2022/07/19 00:59:01;;;;;;;6.22;4.38;;;;;;;;;;5037790;28;20227;-63
2022/07/19 01:01:29;;;;;;;6.88;5.07;;;18.10;1.00;;;;;;5062108;28;20220;-63
2022/07/19 01:03:58;;;;;;;6.63;4.40;;;17.70;1.00;;;;;;5036617;28;20204;-62
2022/07/19 01:06:25;;;;;;;6.53;3.92;;;17.70;1.00;;;;;;5055729;28;20687;-63
2022/07/19 01:08:52;;;;;;;5.45;4.20;;;17.50;1.00;;;;;;5046525;28;20736;-62
2022/07/19 01:11:19;;;;;;;5.18;3.53;;;17.50;1.00;;;;;;5060731;28;20203;-62
2022/07/19 01:13:45;;;;;;;6.05;3.97;;;17.60;1.00;;;;;;5053339;28;20215;-62
2022/07/19 01:16:12;;;;;;;6.03;4.00;;;17.60;1.00;;;;;;5030676;28;21031;-62
2022/07/19 01:18:39;;;;;;;7.18;4.50;;;17.60;1.00;;;;;;5054292;28;20201;-63
2022/07/19 01:21:08;;;;;;;7.75;3.42;;;17.50;1.00;;;;;;5052424;28;20199;-63
2022/07/19 01:23:36;;;;;;;4.00;3.40;;;17.50;1.00;;;;;;5048780;28;20211;-63
2022/07/19 01:26:03;;;;;;;4.63;3.70;;;17.40;1.00;;;;;;5046844;28;20200;-62
2022/07/19 01:28:30;;;;;;;5.82;4.03;;;17.50;1.00;;;;;;5059438;28;20210;-62
2022/07/19 01:30:57;;;;;;;8.20;3.78;;;17.30;1.00;;;;;;5034567;28;20680;-62
2022/07/19 01:33:23;;;;;;;5.57;4.25;;;17.40;1.00;;;;;;5052082;28;20204;-63
2022/07/19 01:35:50;;;;;;;6.07;4.32;;;17.10;1.00;;;;;;5060585;28;20699;-62
2022/07/19 01:38:17;;;;;;;5.57;4.43;;;17.10;1.00;;;;;;5041558;28;20328;-63
2022/07/19 01:40:45;;;;;;;6.55;4.30;;;17.10;1.00;;;;;;5054458;28;20250;-62
2022/07/19 01:43:12;;;;;;;5.80;4.38;;;17.00;1.00;;;;;;5055820;28;20212;-62
2022/07/19 01:45:39;;;;;;;6.72;3.88;;;17.10;1.00;;;;;;5039900;28;20226;-62
2022/07/19 01:48:06;;;;;;;5.63;4.70;;;17.10;1.00;;;;;;5043480;28;20225;-63
2022/07/19 01:50:33;;;;;;;6.15;4.30;;;17.00;1.00;;;;;;5059696;28;20215;-63
2022/07/19 01:53:00;;;;;;;8.27;4.53;;;17.10;1.00;;;;;;5055149;28;20200;-63
2022/07/19 01:55:26;;;;;;;6.53;4.43;;;16.10;1.00;;;;;;5046952;28;20199;-62
2022/07/19 01:57:55;;;;;;;7.88;4.88;;;17.00;1.00;;;;;;5043267;28;20409;-63
2022/07/19 02:00:21;;;;;;;6.65;4.57;;;17.10;1.00;;;;;;5061998;28;20243;-62
2022/07/19 02:02:48;;;;;;;5.55;4.28;;;17.10;1.00;;;;;;5007867;28;20208;-62
2022/07/19 02:05:15;;;;;;;6.43;4.10;;;17.20;1.00;;;;;;5054347;28;20735;-62
2022/07/19 02:07:42;;;;;;;8.98;4.13;;;18.40;1.00;;;;;;5048743;28;20196;-62
2022/07/19 02:10:10;;;;;;;4.45;3.70;;;17.00;1.00;;;;;;5047818;28;20207;-62
2022/07/19 02:12:37;;;;;;;9.15;4.72;;;17.10;1.00;;;;;;5049231;28;20204;-62
2022/07/19 02:15:07;;;;;;;6.65;4.25;;;16.10;1.00;;;;;;5065073;28;20289;-62
2022/07/19 02:17:34;;;;;;;6.45;4.70;;;;;;;;;;5008982;28;20228;-62
2022/07/19 02:20:01;;;;;;;7.18;5.00;;;17.00;1.00;;;;;;5047383;28;20228;-63
2022/07/19 02:22:27;;;;;;;5.75;4.43;;;16.70;1.00;;;;;;5035081;28;20689;-62
2022/07/19 02:24:54;;;;;;;7.38;4.43;;;17.00;1.00;;;;;;5048790;28;20196;-62
2022/07/19 02:27:21;;;;;;;8.85;4.10;;;16.90;1.00;;;;;;5038445;28;20204;-62
2022/07/19 02:29:48;;;;;;;12.05;4.22;;;17.00;1.00;;;;;;5052736;28;21119;-62
2022/07/19 02:32:16;;;;;;;5.18;4.43;;;17.00;1.00;;;;;;5034782;28;20251;-62
2022/07/19 02:34:43;;;;;;;7.00;4.30;;;17.00;1.00;;;;;;5038091;28;20315;-62
2022/07/19 02:37:10;;;;;;;5.97;4.20;;;17.10;1.00;;;;;;5025182;28;20242;-62
2022/07/19 02:39:37;;;;;;;5.20;4.07;;;16.90;1.00;;;;;;5042561;28;20273;-62
2022/07/19 02:42:04;;;;;;;6.80;4.57;;;17.10;1.00;;;;;;5032084;28;20220;-63
2022/07/19 02:44:31;;;;;;;9.05;4.63;;;17.10;1.00;;;;;;5042394;28;20208;-62
2022/07/19 02:46:58;;;;;;;7.47;4.65;;;17.00;1.00;;;;;;5050490;28;20211;-62
2022/07/19 02:49:26;;;;;;;9.07;4.60;;;17.00;1.00;;;;;;5022086;28;21161;-63
2022/07/19 02:51:53;;;;;;;6.93;4.72;;;17.00;1.00;;;;;;5038117;28;20212;-62
2022/07/19 02:54:20;;;;;;;7.28;4.55;;;15.60;1.00;;;;;;5034436;28;20838;-63
2022/07/19 02:56:46;;;;;;;8.45;4.40;;;17.10;1.00;;;;;;5037444;28;20208;-63
2022/07/19 02:59:13;;;;;;;7.97;4.80;;;17.00;1.00;;;;;;5033610;28;20250;-62
2022/07/19 03:01:40;;;;;;;11.63;4.65;;;17.00;1.00;;;;;;5050338;28;20212;-62
2022/07/19 03:04:07;;;;;;;10.73;4.95;;;16.40;1.00;;;;;;5029747;28;20208;-63
2022/07/19 03:06:35;;;;;;;11.13;4.78;;;16.80;1.00;;;;;;5030181;28;20204;-63
2022/07/19 03:09:02;;;;;;;6.97;4.20;;;17.00;1.00;;;;;;5039415;28;20204;-62
2022/07/19 03:11:28;;;;;;;6.75;4.38;;;16.70;1.00;;;;;;5046271;28;20299;-62
2022/07/19 03:13:56;;;;;;;6.63;3.85;;;16.70;1.00;;;;;;5046855;28;20215;-62
2022/07/19 03:16:22;;;;;;;5.47;4.00;;;16.70;1.00;;;;;;5059360;28;21169;-62
2022/07/19 03:18:49;;;;;;;7.65;3.65;;;16.60;1.00;;;;;;5044205;28;20212;-62
2022/07/19 03:21:16;;;;;;;6.35;4.32;;;16.70;1.00;;;;;;5017787;28;21529;-63
2022/07/19 03:23:44;;;;;;;6.60;4.30;;;16.60;1.00;;;;;;5034424;28;20203;-62
2022/07/19 03:26:12;;;;;;;8.93;3.90;;;16.60;1.00;;;;;;5045205;28;20215;-62
2022/07/19 03:28:38;;;;;;;6.13;4.57;;;16.60;1.00;;;;;;5041033;28;22360;-62
2022/07/19 03:31:05;;;;;;;6.47;4.65;;;16.50;1.00;;;;;;5043867;28;20834;-62
2022/07/19 03:33:32;;;;;;;6.18;4.75;;;17.20;1.00;;;;;;5059300;28;21398;-62
2022/07/19 03:35:59;;;;;;;6.75;4.75;;;16.20;1.00;;;;;;5024782;28;20204;-63
2022/07/19 03:38:26;;;;;;;8.23;5.00;;;16.40;1.00;;;;;;5031301;28;20226;-62
2022/07/19 03:40:55;;;;;;;7.13;5.28;;;16.50;1.00;;;;;;5049718;28;20711;-62
2022/07/19 03:43:23;;;;;;;6.50;4.85;;;16.50;1.00;;;;;;5031419;28;20868;-62
2022/07/19 03:45:50;;;;;;;9.32;6.00;;;16.60;1.00;;;;;;5036903;28;20244;-63
2022/07/19 03:48:17;;;;;;;15.88;6.22;;;16.50;1.00;;;;;;5054039;28;20197;-63
2022/07/19 03:50:44;;;;;;;10.15;6.45;;;16.50;1.00;;;;;;5063790;28;21045;-62
2022/07/19 03:53:12;;;;;;;9.82;6.00;;;16.50;1.00;;;;;;5007899;28;21013;-63
2022/07/19 03:55:39;;;;;;;9.98;6.22;;;;;;;;;;5051828;28;20593;-62
2022/07/19 03:58:07;;;;;;;10.88;6.05;;;16.80;8.60;;;;;;5037585;28;20226;-63
2022/07/19 04:00:34;;;;;;;12.50;6.78;;;16.50;6.00;;;;;;5055163;28;21020;-62
2022/07/19 04:03:00;;;;;;;9.02;6.22;;;16.60;8.20;;;;;;5069208;28;20203;-62
2022/07/19 04:05:27;;;;;;;8.77;6.07;;;16.60;9.70;;;;;;5055320;28;20208;-62
2022/07/19 04:07:57;;;;;;;10.38;6.60;;;16.70;9.30;;;;;;5036563;28;20212;-62
2022/07/19 04:10:24;;;;;;;8.55;5.82;;;16.60;10.80;;;;;;5056002;28;20283;-63
2022/07/19 04:12:50;;;;;;;9.15;5.63;;;16.70;12.40;;;;;;5055765;28;20200;-62
2022/07/19 04:15:19;;;;;;;8.32;5.45;;;16.60;7.70;;;;;;5038844;28;21089;-63
2022/07/19 04:17:45;;;;;;;7.95;4.65;;;16.60;4.90;;;;;;5058626;28;20210;-62
2022/07/19 04:20:13;;;;;;;4.28;3.80;;;16.70;2.10;;;;;;5035005;28;20235;-62
2022/07/19 04:22:39;;;;;;;4.10;3.60;;;16.70;1.00;;;;;;5040943;28;20209;-63
2022/07/19 04:25:07;;;;;;;4.97;3.72;;;16.80;1.00;;;;;;5053100;28;20203;-62
2022/07/19 04:27:34;;;;;;;4.20;3.35;;;16.70;1.00;;;;;;5046141;28;20659;-62
2022/07/19 04:30:01;;;;;;;6.05;3.40;;;19.10;1.00;;;;;;5043553;28;20204;-62
2022/07/19 04:32:30;;;;;;;4.07;3.67;;;16.70;1.00;;;;;;5014752;28;20239;-63
2022/07/19 04:34:56;;;;;;;7.32;4.38;;;16.70;1.00;;;;;;5046318;28;20200;-62
2022/07/19 04:37:24;;;;;;;7.28;4.15;;;16.80;1.00;;;;;;5042850;28;20200;-63
2022/07/19 04:39:51;;;;;;;6.40;4.25;;;16.80;1.00;;;;;;5047981;28;20722;-63
2022/07/19 04:42:18;;;;;;;5.32;3.95;;;;;;;;;;5045471;28;20214;-63
2022/07/19 04:44:45;;;;;;;6.40;4.28;;;16.90;1.00;;;;;;5047705;28;20201;-62
2022/07/19 04:47:12;;;;;;;8.05;4.13;;;17.00;1.00;;;;;;5052934;28;20204;-62
2022/07/19 04:49:40;;;;;;;9.13;4.22;;;17.40;1.00;;;;;;5050900;28;20215;-63
2022/07/19 04:52:07;;;;;;;5.32;4.22;;;17.10;1.00;;;;;;5050329;28;20577;-63
2022/07/19 04:54:34;;;;;;;8.10;4.78;;;17.20;1.00;;;;;;5024191;28;20255;-64
2022/07/19 04:57:01;;;;;;;7.75;4.63;;;;;;;;;;5057910;28;20204;-63
2022/07/19 04:59:28;;;;;;;8.20;5.65;;;17.40;1.00;;;;;;5041600;28;20219;-63
2022/07/19 05:01:55;;;;;;;7.55;4.72;;;17.70;1.00;;;;;;5057495;28;20243;-63
2022/07/19 05:04:22;;;;;;;8.82;4.25;;;17.50;1.00;;;;;;5060774;28;20197;-63
2022/07/19 05:06:56;;;;;;;7.32;4.50;;;17.50;1.00;;;;;;5059450;28;20680;-63
2022/07/19 05:09:23;;;;;;;8.15;4.50;;;;;;;;;;5028053;28;20228;-63
2022/07/19 05:11:50;;;;;;;8.48;4.35;;;17.70;1.00;;;;;;5031335;28;20235;-63
2022/07/19 05:14:17;;;;;;;7.50;4.47;;;17.60;1.00;;;;;;5046105;28;20228;-63
2022/07/19 05:16:44;;;;;;;6.22;4.43;;;17.70;1.00;;;;;;5041130;28;20285;-63
2022/07/19 05:19:11;;;;;;;7.13;4.95;;;17.90;1.00;;;;;;5065235;28;20203;-63
2022/07/19 05:21:38;;;;;;;13.25;4.90;;;18.00;1.00;;;;;;5051759;28;20238;-63
2022/07/19 05:24:06;;;;;;;6.00;4.88;;;18.00;1.00;;;;;;5060627;28;20219;-63
2022/07/19 05:26:33;;;;;;;7.05;4.75;;;18.40;1.00;;;;;;5025069;28;24032;-63
2022/07/19 05:29:00;;;;;;;9.02;5.32;;;;;;;;;;5052140;28;20315;-63
2022/07/19 05:31:27;;;;;;;9.32;5.07;;;18.30;1.00;;;;;;5030750;28;20239;-62
2022/07/19 05:33:54;;;;;;;8.00;4.93;;;18.40;1.00;;;;;;5054195;28;20687;-62
2022/07/19 05:36:21;;;;;;;8.57;5.22;;;18.50;1.00;;;;;;5063410;28;20758;-62
2022/07/19 05:38:47;;;;;;;6.97;3.88;;;18.60;1.00;;;;;;5060777;28;21825;-62
2022/07/19 05:41:16;;;;;;;8.32;4.53;;;18.80;1.00;;;;;;5047786;28;20227;-62
2022/07/19 05:43:44;;;;;;;7.10;4.57;;;19.10;1.00;;;;;;5049349;28;20227;-63
2022/07/19 05:46:10;;;;;;;7.85;4.97;;;19.20;1.00;;;;;;5051204;28;20204;-63
2022/07/19 05:48:37;;;;;;;6.93;4.55;;;19.40;1.00;;;;;;5042768;28;20203;-64
2022/07/19 05:51:05;;;;;;;7.20;4.60;;;19.40;1.00;;;;;;5066937;28;20929;-63
2022/07/19 05:53:31;;;;;;;9.30;5.22;;;19.40;1.00;;;;;;5049031;28;20192;-63
2022/07/19 05:55:58;;;;;;;7.25;4.78;;;19.30;99.90;;;;;;5058242;28;20208;-63
2022/07/19 05:58:26;;;;;;;6.60;4.93;;;19.40;99.90;;;;;;5040617;28;20563;-62
2022/07/19 06:03:37;;;;;;;7.93;4.70;;;19.40;99.90;;;;;;5042838;28;20749;-64
2022/07/19 06:06:05;;;;;;;8.45;5.07;;;;;;;;;;5055514;28;20682;-63
2022/07/19 06:08:32;;;;;;;10.98;5.53;;;19.30;99.90;;;;;;5047566;28;21028;-63
2022/07/19 06:10:59;;;;;;;6.00;4.88;;;19.50;99.90;;;;;;5056241;28;20230;-63
2022/07/19 06:13:27;;;;;;;8.82;4.35;;;19.50;99.90;;;;;;5021755;28;22319;-63
2022/07/19 06:15:54;;;;;;;6.57;4.47;;;19.50;99.90;;;;;;5063154;28;20220;-62
2022/07/19 06:18:21;;;;;;;13.75;4.15;;;20.40;99.90;;;;;;5017112;28;20230;-64
2022/07/19 06:20:48;;;;;;;7.15;4.90;;;20.10;99.90;;;;;;5050598;22;20274;-63
2022/07/19 06:23:15;;;;;;;7.05;4.82;;;19.70;99.90;;;;;;5010539;28;20217;-62
2022/07/19 06:25:42;;;;;;;4.97;4.05;;;19.60;99.90;;;;;;5018743;28;20204;-64
2022/07/19 06:28:09;;;;;;;8.05;4.78;;;19.90;99.90;;;;;;4985561;28;20229;-63
2022/07/19 06:30:37;;;;;;;10.73;4.95;;;20.00;99.90;;;;;;4969546;28;20226;-63
2022/07/19 06:33:04;;;;;;;9.07;4.90;;;20.00;99.90;;;;;;4993071;28;20213;-63
2022/07/19 06:35:31;;;;;;;6.30;4.32;;;20.30;99.90;;;;;;4972204;28;20226;-63
2022/07/19 06:37:58;;;;;;;7.32;4.45;;;20.10;99.90;;;;;;5000572;28;20225;-63
2022/07/19 06:40:25;;;;;;;9.45;4.50;;;;;;;;;;5004232;28;20218;-63
2022/07/19 06:42:52;;;;;;;6.32;4.25;;;20.40;99.90;;;;;;4979482;28;20817;-63
2022/07/19 06:45:19;;;;;;;6.00;3.80;;;21.70;99.90;;;;;;4937921;28;20217;-64
2022/07/19 06:47:47;;;;;;;7.15;4.15;;;20.50;1.00;;;;;;4992558;28;20680;-64
2022/07/19 06:50:14;;;;;;;3.97;3.55;;;20.50;1.00;;;;;;4976796;28;20202;-64
2022/07/19 06:52:41;;;;;;;9.60;4.20;;;20.60;1.00;;;;;;4994318;28;20212;-64
2022/07/19 06:55:08;;;;;;;8.40;4.40;;;20.60;1.00;;;;;;4977852;28;20226;-63
2022/07/19 06:57:35;;;;;;;6.95;3.92;;;;;;;;;;4979629;28;21331;-64
2022/07/19 07:00:04;;;;;;;12.57;4.45;;;21.00;1.00;;;;;;4936167;28;20229;-64
2022/07/19 07:02:31;;;;;;;4.55;3.72;;;21.00;1.00;;;;;;4995171;28;21261;-63
2022/07/19 07:04:59;;;;;;;6.30;3.80;;;21.00;1.00;;;;;;4946041;28;20221;-63
2022/07/19 07:07:26;;;;;;;8.13;3.47;;;20.90;99.90;;;;;;4987234;28;20224;-63
2022/07/19 07:09:53;;;;;;;6.75;3.50;;;19.10;99.90;;;;;;4974552;28;20233;-63
2022/07/19 07:12:20;;;;;;;5.97;3.85;;;21.60;92.70;;;;;;5000787;28;20209;-62
2022/07/19 07:14:47;;;;;;;5.50;3.53;;;21.80;1.00;;;;;;4976209;28;20203;-63
2022/07/19 07:17:13;;;;;;;4.63;3.20;;;21.40;99.90;;;;;;4980272;28;20202;-63
2022/07/19 07:19:40;;;;;;;8.27;4.00;;;21.60;27.90;;;;;;4989292;28;20206;-63
2022/07/19 07:22:09;;;;;;;10.45;3.42;;;21.60;99.90;;;;;;4968843;28;20253;-63
2022/07/19 07:24:36;;;;;;;13.60;3.50;;;21.70;1.00;;;;;;4997422;28;20205;-63
2022/07/19 07:27:02;;;;;;;4.38;3.13;;;22.00;1.00;;;;;;4973889;28;20451;-63
2022/07/19 07:29:29;;;;;;;6.28;3.08;;;22.00;10.80;;;;;;4979028;28;20232;-63
2022/07/19 07:31:56;;;;;;;5.95;4.35;;;22.50;99.90;;;;;;4967186;28;20697;-63
2022/07/19 07:34:23;;;;;;;3.88;2.97;;;22.30;99.90;;;;;;4996881;28;21566;-63
2022/07/19 07:36:50;;;;;;;4.68;3.28;;;22.40;1.00;;;;;;4978282;28;20914;-64
2022/07/19 07:39:18;;;;;;;6.15;3.47;;;22.40;1.00;;;;;;4999956;28;20232;-64
2022/07/19 07:41:45;;;;;;;4.72;3.25;;;22.50;1.00;;;;;;5003460;28;21055;-64
2022/07/19 07:44:12;;;;;;;5.03;3.40;;;22.50;1.00;;;;;;5007985;28;20221;-64
2022/07/19 07:46:38;;;;;;;4.85;2.90;;;25.40;99.90;;;;;;4952130;28;20211;-64
2022/07/19 07:49:05;;;;;;;4.28;3.10;;;22.50;99.90;;;;;;4995174;28;20212;-64
2022/07/19 07:51:32;;;;;;;4.40;3.03;;;22.50;99.90;;;;;;4986277;28;22611;-64
2022/07/19 07:54:00;;;;;;;5.60;3.55;;;22.60;99.90;;;;;;4990844;28;20650;-63
2022/07/19 07:56:28;;;;;;;4.68;3.17;;;22.80;1.00;;;;;;5011012;28;20202;-63
2022/07/19 07:58:55;;;;;;;6.88;3.40;;;22.90;1.00;;;;;;4997684;28;20304;-64
2022/07/19 08:01:22;;;;;;;4.18;3.20;;;23.10;1.00;;;;;;4986175;28;20226;-63
2022/07/19 08:03:49;;;;;;;5.85;2.92;;;25.00;1.00;;;;;;4956974;28;20233;-64
2022/07/19 08:06:15;;;;;;;5.32;3.50;;;23.10;1.00;;;;;;4986604;28;20210;-63
2022/07/19 08:08:43;;;;;;;3.33;2.70;;;23.10;1.00;;;;;;4986282;28;20233;-63
2022/07/19 08:11:10;;;;;;;10.52;3.13;;;23.10;1.00;;;;;;4981808;28;20202;-62
2022/07/19 08:13:38;;;;;;;5.47;3.20;;;23.10;1.00;;;;;;4999837;28;20209;-61
2022/07/19 08:16:06;;;;;;;6.72;2.80;;;23.10;99.90;;;;;;4996276;28;20229;-62
2022/07/19 08:18:33;;;;;;;9.50;2.92;;;23.40;99.90;;;;;;4966053;28;20226;-62
2022/07/19 08:21:00;;;;;;;4.43;3.33;;;23.20;99.90;;;;;;5004291;28;20578;-61
2022/07/19 08:23:27;;;;;;;4.05;2.78;;;23.20;99.90;;;;;;4975489;28;20304;-61
2022/07/19 08:25:54;;;;;;;6.43;3.20;;;23.30;99.90;;;;;;4990579;28;20229;-61
2022/07/19 08:28:21;;;;;;;4.78;3.00;;;23.50;97.70;;;;;;5009866;28;20213;-61
2022/07/19 08:30:49;;;;;;;5.35;2.97;;;23.30;1.00;;;;;;4980543;28;20222;-62
2022/07/19 08:33:15;;;;;;;3.35;2.88;;;23.40;1.00;;;;;;4982770;28;20222;-62
2022/07/19 08:35:42;;;;;;;5.93;2.65;;;23.20;1.00;;;;;;4976708;28;20846;-62
2022/07/19 08:38:09;;;;;;;3.83;2.80;;;23.60;1.00;;;;;;4996321;28;20217;-62
2022/07/19 08:40:39;;;;;;;5.45;3.10;;;23.60;1.00;;;;;;4991534;28;20209;-62
2022/07/19 08:43:06;;;;;;;11.40;3.15;;;23.70;1.00;;;;;;4991292;28;20229;-62
2022/07/19 08:45:34;;;;;;;6.90;2.88;;;23.90;1.00;;;;;;4978683;28;20232;-62
2022/07/19 08:48:02;;;;;;;6.53;3.00;;;24.10;1.00;;;;;;4995221;28;20248;-62
2022/07/19 08:50:30;;;;;;;6.13;3.17;;;24.10;1.00;;;;;;4971596;28;20217;-62
2022/07/19 08:52:59;;;;;;;3.30;2.92;;;24.10;1.00;;;;;;5008443;28;20225;-62
2022/07/19 08:55:26;;;;;;;4.90;2.90;;;24.30;1.00;;;;;;4979499;28;20218;-63
2022/07/19 08:57:57;;;;;;;6.88;2.85;;;24.20;1.00;;;;;;4998135;28;20225;-62
2022/07/19 09:00:25;;;;;;;5.10;2.70;;;24.20;99.90;;;;;;4995983;28;20206;-63
2022/07/19 09:02:54;;;;;;;10.02;2.85;;;24.30;99.90;;;;;;4996521;28;20236;-62
2022/07/19 09:05:23;;;;;;;6.32;3.13;;;;;;;;;;4963210;28;20206;-63
2022/07/19 09:08:09;;;;;;;5.28;3.05;;;24.50;99.90;;;;;;5000372;28;20202;-62
2022/07/19 09:10:37;;;;;;;7.20;2.97;;;24.60;99.90;;;;;;4991042;28;20206;-62
2022/07/19 09:13:07;;;;;;;8.70;2.83;;;24.70;99.90;;;;;;5005216;28;20804;-62
2022/07/19 09:15:49;;;;;;;3.55;2.60;;;24.70;99.90;;;;;;4986144;28;20252;-62
2022/07/19 09:18:19;;;;;;;5.60;2.83;;;24.90;99.90;;;;;;4987837;28;20977;-63
2022/07/19 09:20:49;;;;;;;9.52;2.78;;;25.00;99.90;;;;;;4980609;28;20237;-62
2022/07/19 09:23:16;;;;;;;10.73;3.05;;;25.20;99.90;;;;;;4980199;28;20253;-63
2022/07/19 09:25:45;;;;;;;4.95;2.50;;;25.40;99.90;;;;;;4987311;28;20236;-62
2022/07/19 09:28:13;;;;;;;2.80;2.33;;;;;;;;;;5001675;28;20202;-62
2022/07/19 09:30:42;;;;;;;8.80;2.53;;;25.60;99.90;;;;;;5057344;22;20259;-62
2022/07/19 09:33:15;;;;;;;7.03;2.47;;;25.50;99.90;;;;;;5018587;28;20204;-63
2022/07/19 09:35:45;;;;;;;5.85;2.20;;;25.70;67.30;;;;;;5034407;28;20204;-63
2022/07/19 09:38:17;;;;;;;7.28;2.30;;;25.70;20.70;;;;;;5002849;28;20695;-62
2022/07/19 09:40:44;;;;;;;6.47;2.05;;;25.80;1.00;;;;;;5033065;28;20224;-63
2022/07/19 09:43:11;;;;;;;4.25;2.17;;;25.00;90.90;;;;;;4995096;28;20663;-64
2022/07/19 09:45:38;;;;;;;4.53;2.17;;;25.90;1.00;;;;;;5025132;28;20198;-62
2022/07/19 09:48:05;;;;;;;6.68;2.00;;;26.10;1.00;;;;;;5001861;28;20203;-62
2022/07/19 09:50:32;;;;;;;5.75;2.08;;;26.10;1.00;;;;;;5022261;28;20225;-62
2022/07/19 09:53:02;;;;;;;3.30;2.10;;;26.20;1.00;;;;;;4987382;28;20217;-64
2022/07/19 09:55:30;;;;;;;6.72;2.05;;;26.20;1.00;;;;;;5021703;28;20214;-63
2022/07/19 09:57:58;;;;;;;2.10;1.77;;;29.10;1.00;;;;;;5009902;28;20696;-64
2022/07/19 10:00:26;;;;;;;4.10;2.15;;;26.30;1.00;;;;;;5020725;28;20280;-64
2022/07/19 10:02:56;;;;;;;2.88;2.13;;;26.40;1.00;;;;;;5019188;28;20230;-64
2022/07/19 10:05:24;;;;;;;8.25;2.50;;;26.50;1.00;;;;;;5013448;28;20201;-61
2022/07/19 10:07:51;;;;;;;2.30;2.10;;;26.70;1.00;;;;;;5011724;28;20206;-61
2022/07/19 10:10:19;;;;;;;2.80;2.15;;;26.70;1.00;;;;;;5000101;28;20205;-61
2022/07/19 10:12:50;;;;;;;2.33;2.08;;;26.80;1.00;;;;;;5025581;28;20197;-62
2022/07/19 10:15:18;;;;;;;7.00;2.33;;;26.90;1.00;;;;;;4996516;28;20210;-62
2022/07/19 10:17:57;;;;;;;3.75;2.47;;;28.40;1.00;;;;;;5009454;28;20201;-63
2022/07/19 10:20:27;;;;;;;2.65;2.10;;;27.30;1.00;;;;;;5009338;28;20225;-62
2022/07/19 10:22:57;;;;;;;3.95;2.20;;;27.40;1.00;;;;;;5008137;28;21354;-62
2022/07/19 10:25:24;;;;;;;7.35;2.20;;;27.20;1.00;;;;;;4999506;28;20213;-62
2022/07/19 10:27:54;;;;;;;2.35;2.03;;;27.30;1.00;;;;;;5024004;28;20212;-62
2022/07/19 10:30:24;;;;;;;6.70;2.08;;;27.40;1.00;;;;;;5006906;28;20920;-62
2022/07/19 10:32:56;;;;;;;4.35;2.35;;;27.40;1.00;;;;;;5025428;28;20681;-63
2022/07/19 10:35:28;;;;;;;3.08;2.08;;;27.50;1.00;;;;;;5013719;28;20198;-63
2022/07/19 10:37:56;;;;;;;8.48;2.50;;;26.40;1.00;;;;;;5023621;28;20708;-63
2022/07/19 10:40:40;;;;;;;5.38;2.08;;;27.60;1.00;;;;;;4998719;28;20237;-63
2022/07/19 10:43:10;;;;;;;3.25;1.83;;;27.60;1.00;;;;;;5028011;28;20741;-63
2022/07/19 10:45:39;;;;;;;4.78;2.10;;;27.70;1.00;;;;;;5005106;28;20202;-63
2022/07/19 10:48:09;;;;;;;4.05;2.22;;;27.80;1.00;;;;;;5023737;28;20236;-63
2022/07/19 10:51:00;;;;;;;7.22;2.58;;;27.90;1.00;;;;;;5010025;28;20219;-63
2022/07/19 10:54:10;;;;;;;3.28;2.30;;;27.90;1.00;;;;;;5019122;28;20212;-63
2022/07/19 10:57:00;;;;;;;3.35;2.10;;;27.90;1.00;;;;;;5002409;28;20293;-64
2022/07/19 10:59:41;;;;;;;3.97;2.13;;;28.00;1.00;;;;;;5007782;28;20767;-64
2022/07/19 11:02:21;;;;;;;3.10;2.22;;;28.10;1.00;;;;;;5009785;28;20261;-63
2022/07/19 11:04:48;;;;;;;5.78;2.25;;;28.40;1.00;;;;;;5021747;28;20208;-63
2022/07/19 11:07:18;;;;;;;3.80;2.13;;;28.10;1.00;;;;;;5007561;28;20226;-63
2022/07/19 11:09:54;;;;;;;2.30;2.05;;;28.20;1.00;;;;;;5020298;28;20292;-63
2022/07/19 11:12:36;;;;;;;2.67;1.98;;;28.20;1.00;;;;;;4989629;28;20228;-63
2022/07/19 11:15:10;;;;;;;2.35;2.15;;;28.30;1.00;;;;;;5018821;28;20632;-63
2022/07/19 11:17:37;;;;;;;4.03;2.05;;;;;;;;;;4993822;28;20350;-63
2022/07/19 11:20:10;;;;;;;2.55;1.85;;;28.30;1.00;;;;;;5025432;28;20240;-63
2022/07/19 11:22:39;;;;;;;3.22;2.05;;;28.40;1.00;;;;;;5012281;28;20360;-64
2022/07/19 11:25:08;;;;;;;1.75;1.52;;;28.30;1.00;;;;;;5024728;28;20316;-64
2022/07/19 11:27:35;;;;;;;2.60;2.30;;;24.30;1.00;;;;;;4997127;28;20205;-64
2022/07/19 11:30:05;;;;;;;5.95;2.10;;;29.90;1.00;;;;;;5013722;28;20244;-63
2022/07/19 11:32:33;;;;;;;3.17;1.80;;;28.60;1.00;;;;;;5000922;28;20490;-64
2022/07/19 11:35:03;;;;;;;6.53;1.90;;;28.60;1.00;;;;;;5023269;28;20202;-65
2022/07/19 11:37:34;;;;;;;4.93;1.88;;;28.70;1.00;;;;;;5008180;28;20202;-64
2022/07/19 11:40:01;;;;;;;7.90;2.05;;;28.70;1.00;;;;;;5023383;28;20569;-64
2022/07/19 11:42:31;;;;;;;2.95;1.92;;;28.70;1.00;;;;;;4993918;28;20318;-64
2022/07/19 11:44:58;;;;;;;3.03;1.90;;;28.80;1.00;;;;;;5012052;28;20212;-63
2022/07/19 11:47:25;;;;;;;2.75;2.00;;;28.90;1.00;;;;;;5017447;28;20198;-63
2022/07/19 11:49:54;;;;;;;2.40;1.85;;;28.90;1.00;;;;;;4994449;28;21538;-63
2022/07/19 11:52:21;;;;;;;1.98;1.77;;;30.50;1.00;;;;;;5014385;28;20216;-65
2022/07/19 11:55:06;;;;;;;3.92;2.08;;;29.00;1.00;;;;;;5025746;28;20205;-64
2022/07/19 11:57:34;;;;;;;2.10;1.83;;;29.30;1.00;;;;;;5002251;28;20210;-63
2022/07/19 12:00:01;;;;;;;4.03;1.67;;;28.90;1.00;;;;;;5017591;28;20213;-63
2022/07/19 12:02:27;;;;;;;3.35;1.90;;;29.00;1.00;;;;;;5004344;28;20234;-63
2022/07/19 12:04:56;;;;;;;2.40;1.80;;;29.00;1.00;;;;;;5004354;28;20198;-63
2022/07/19 12:07:23;;;;;;;1.95;1.75;;;;;;;;;;4997747;28;20216;-63
2022/07/19 12:09:50;;;;;;;2.83;1.98;;;29.00;1.00;;;;;;5015942;28;20204;-63
2022/07/19 12:12:17;;;;;;;2.65;2.10;;;29.00;1.00;;;;;;5008935;28;20224;-64
2022/07/19 12:14:44;;;;;;;2.38;1.90;;;29.10;1.00;;;;;;4982562;28;20252;-63
2022/07/19 12:17:13;;;;;;;6.13;1.83;;;29.10;1.00;;;;;;5017951;28;20201;-63
2022/07/19 12:19:41;;;;;;;5.10;1.73;;;29.10;1.00;;;;;;5008088;28;20226;-63
2022/07/19 12:22:27;;;;;;;1.90;1.75;;;29.10;1.00;;;;;;5014241;28;20202;-63
2022/07/19 12:24:53;;;;;;;2.13;1.73;;;29.20;1.00;;;;;;5014798;28;20277;-64
2022/07/19 12:27:21;;;;;;;2.42;1.80;;;29.20;1.00;;;;;;5032598;28;20205;-64
2022/07/19 12:29:49;;;;;;;1.95;1.70;;;29.30;1.00;;;;;;4990959;28;20780;-64
2022/07/19 12:32:28;;;;;;;2.25;1.70;;;29.30;1.00;;;;;;5007794;28;20334;-64
2022/07/19 12:34:58;;;;;;;2.40;1.73;;;29.40;1.00;;;;;;5005826;28;20730;-63
2022/07/19 12:37:28;;;;;;;6.28;1.88;;;29.40;1.00;;;;;;5015851;28;21005;-63
2022/07/19 12:40:06;;;;;;;1.98;1.67;;;29.50;1.00;;;;;;5001385;28;20205;-63
2022/07/19 12:42:43;;;;;;;3.13;1.92;;;29.50;1.00;;;;;;5023977;28;20255;-64
2022/07/19 12:45:12;;;;;;;1.85;1.75;;;29.50;1.00;;;;;;4996085;28;20227;-63
2022/07/19 12:47:39;;;;;;;2.35;1.92;;;;;;;;;;5026088;28;20558;-64
2022/07/19 12:50:07;;;;;;;2.95;1.90;;;29.50;1.00;;;;;;5015532;28;20204;-64
2022/07/19 12:52:35;;;;;;;3.40;2.10;;;29.60;1.00;;;;;;5014787;28;20202;-64
2022/07/19 12:55:02;;;;;;;2.35;1.92;;;29.70;1.00;;;;;;5020426;28;20786;-64
2022/07/19 12:57:29;;;;;;;3.10;2.10;;;29.80;1.00;;;;;;5019377;28;21448;-63
2022/07/19 12:59:56;;;;;;;4.55;2.28;;;29.80;1.00;;;;;;4999248;28;20225;-63
2022/07/19 13:02:23;;;;;;;3.25;2.05;;;29.90;1.00;;;;;;5016885;28;20202;-64
2022/07/19 13:04:50;;;;;;;3.80;1.90;;;30.00;1.00;;;;;;5006841;28;20221;-64
2022/07/19 13:07:16;;;;;;;3.20;2.17;;;29.90;1.00;;;;;;5025503;28;20198;-64